sensor_id;sensor_type;location;lat;lon;timestamp;pressure;altitude;pressure_sealevel;temperature;humidity
61472;BME280;47337;54.068;12.114;2022-12-07T00:03:42;100812.13;;;1.99;100.00
61472;BME280;47337;54.068;12.114;2022-12-07T00:06:13;100805.38;;;2.02;100.00
61472;BME280;47337;54.068;12.114;2022-12-07T00:08:42;100807.16;;;2.03;100.00
61472;BME280;47337;54.068;12.114;2022-12-07T00:11:13;100802.75;;;2.01;100.00
61472;BME280;47337;54.068;12.114;2022-12-07T00:13:39;100796.19;;;2.09;100.00
61472;BME280;47337;54.068;12.114;2022-12-07T00:16:13;100787.47;;;2.07;100.00
61472;BME280;47337;54.068;12.114;2022-12-07T00:18:39;100787.94;;;1.98;100.00
61472;BME280;47337;54.068;12.114;2022-12-07T00:21:08;100781.97;;;1.99;100.00
61472;BME280;47337;54.068;12.114;2022-12-07T00:23:34;100776.78;;;1.99;100.00
61472;BME280;47337;54.068;12.114;2022-12-07T00:26:10;100774.94;;;1.97;100.00
61472;BME280;47337;54.068;12.114;2022-12-07T00:28:39;100773.09;;;1.94;100.00
61472;BME280;47337;54.068;12.114;2022-12-07T00:31:09;100770.50;;;1.94;100.00
61472;BME280;47337;54.068;12.114;2022-12-07T00:33:36;100758.59;;;1.98;100.00
61472;BME280;47337;54.068;12.114;2022-12-07T00:36:07;100758.44;;;1.95;100.00
61472;BME280;47337;54.068;12.114;2022-12-07T00:38:34;100745.44;;;1.93;100.00
61472;BME280;47337;54.068;12.114;2022-12-07T00:41:03;100736.84;;;1.94;100.00
61472;BME280;47337;54.068;12.114;2022-12-07T00:43:29;100732.50;;;1.93;100.00
61472;BME280;47337;54.068;12.114;2022-12-07T00:45:55;100729.81;;;1.90;100.00
61472;BME280;47337;54.068;12.114;2022-12-07T00:48:21;100726.09;;;1.85;100.00
61472;BME280;47337;54.068;12.114;2022-12-07T00:50:47;100715.50;;;1.79;100.00
61472;BME280;47337;54.068;12.114;2022-12-07T00:53:13;100724.00;;;1.76;100.00
61472;BME280;47337;54.068;12.114;2022-12-07T00:55:38;100718.81;;;1.76;100.00
61472;BME280;47337;54.068;12.114;2022-12-07T00:58:04;100711.06;;;1.76;100.00
61472;BME280;47337;54.068;12.114;2022-12-07T01:00:32;100707.31;;;1.70;100.00
61472;BME280;47337;54.068;12.114;2022-12-07T01:02:58;100697.09;;;1.73;100.00
61472;BME280;47337;54.068;12.114;2022-12-07T01:05:24;100699.53;;;1.70;100.00
61472;BME280;47337;54.068;12.114;2022-12-07T01:07:49;100700.31;;;1.67;100.00
61472;BME280;47337;54.068;12.114;2022-12-07T01:10:15;100696.91;;;1.68;100.00
61472;BME280;47337;54.068;12.114;2022-12-07T01:12:40;100698.69;;;1.69;100.00
61472;BME280;47337;54.068;12.114;2022-12-07T01:15:09;100697.59;;;1.64;100.00
61472;BME280;47337;54.068;12.114;2022-12-07T01:17:35;100697.66;;;1.66;100.00
61472;BME280;47337;54.068;12.114;2022-12-07T01:20:01;100704.47;;;1.64;100.00
61472;BME280;47337;54.068;12.114;2022-12-07T01:22:30;100704.59;;;1.67;100.00
61472;BME280;47337;54.068;12.114;2022-12-07T01:24:55;100696.47;;;1.59;100.00
61472;BME280;47337;54.068;12.114;2022-12-07T01:27:23;100686.19;;;1.61;100.00
61472;BME280;47337;54.068;12.114;2022-12-07T01:29:50;100689.69;;;1.61;100.00
61472;BME280;47337;54.068;12.114;2022-12-07T01:32:16;100687.91;;;1.60;100.00
61472;BME280;47337;54.068;12.114;2022-12-07T01:34:41;100683.63;;;1.61;100.00
61472;BME280;47337;54.068;12.114;2022-12-07T01:37:06;100681.31;;;1.67;100.00
61472;BME280;47337;54.068;12.114;2022-12-07T01:39:32;100679.69;;;1.69;100.00
61472;BME280;47337;54.068;12.114;2022-12-07T01:41:57;100672.59;;;1.65;100.00
61472;BME280;47337;54.068;12.114;2022-12-07T01:44:23;100671.63;;;1.63;100.00
61472;BME280;47337;54.068;12.114;2022-12-07T01:49:27;100672.38;;;1.60;100.00
61472;BME280;47337;54.068;12.114;2022-12-07T01:51:58;100675.72;;;1.77;100.00
61472;BME280;47337;54.068;12.114;2022-12-07T01:54:32;100671.63;;;1.82;100.00
61472;BME280;47337;54.068;12.114;2022-12-07T01:56:58;100670.28;;;1.71;100.00
61472;BME280;47337;54.068;12.114;2022-12-07T01:59:24;100668.50;;;1.70;100.00
61472;BME280;47337;54.068;12.114;2022-12-07T02:01:52;100671.16;;;1.71;100.00
61472;BME280;47337;54.068;12.114;2022-12-07T02:04:19;100665.88;;;1.68;100.00
61472;BME280;47337;54.068;12.114;2022-12-07T02:06:46;100667.00;;;1.75;100.00
61472;BME280;47337;54.068;12.114;2022-12-07T02:09:12;100662.97;;;1.81;100.00
61472;BME280;47337;54.068;12.114;2022-12-07T02:11:40;100662.50;;;1.90;100.00
61472;BME280;47337;54.068;12.114;2022-12-07T02:14:06;100654.03;;;1.94;100.00
61472;BME280;47337;54.068;12.114;2022-12-07T02:17:05;100645.38;;;1.94;100.00
61472;BME280;47337;54.068;12.114;2022-12-07T02:19:53;100645.38;;;1.94;100.00
61472;BME280;47337;54.068;12.114;2022-12-07T02:26:00;100632.78;;;2.01;100.00
61472;BME280;47337;54.068;12.114;2022-12-07T02:28:04;100623.38;;;2.03;100.00
61472;BME280;47337;54.068;12.114;2022-12-07T02:30:36;100624.16;;;1.81;100.00
61472;BME280;47337;54.068;12.114;2022-12-07T02:35:42;100622.81;;;1.70;100.00
61472;BME280;47337;54.068;12.114;2022-12-07T02:38:19;100620.31;;;1.72;100.00
61472;BME280;47337;54.068;12.114;2022-12-07T02:41:06;100613.56;;;1.75;100.00
61472;BME280;47337;54.068;12.114;2022-12-07T02:43:41;100622.06;;;1.73;100.00
61472;BME280;47337;54.068;12.114;2022-12-07T02:46:13;100612.59;;;1.73;100.00
61472;BME280;47337;54.068;12.114;2022-12-07T02:48:41;100616.97;;;1.74;100.00
61472;BME280;47337;54.068;12.114;2022-12-07T02:51:08;100616.91;;;1.73;100.00
61472;BME280;47337;54.068;12.114;2022-12-07T02:53:41;100610.09;;;1.75;100.00
61472;BME280;47337;54.068;12.114;2022-12-07T02:56:22;100614.31;;;1.73;100.00
61472;BME280;47337;54.068;12.114;2022-12-07T03:04:40;100614.59;;;1.79;100.00
61472;BME280;47337;54.068;12.114;2022-12-07T03:12:40;100592.94;;;1.77;100.00
61472;BME280;47337;54.068;12.114;2022-12-07T03:15:25;100595.59;;;1.99;100.00
61472;BME280;47337;54.068;12.114;2022-12-07T03:17:52;100593.97;;;2.01;100.00
61472;BME280;47337;54.068;12.114;2022-12-07T03:20:23;100593.47;;;1.89;100.00
61472;BME280;47337;54.068;12.114;2022-12-07T03:22:56;100587.13;;;1.82;100.00
61472;BME280;47337;54.068;12.114;2022-12-07T03:25:22;100583.66;;;1.82;100.00
61472;BME280;47337;54.068;12.114;2022-12-07T03:27:55;100589.63;;;1.81;100.00
61472;BME280;47337;54.068;12.114;2022-12-07T03:30:27;100588.75;;;1.80;100.00
61472;BME280;47337;54.068;12.114;2022-12-07T03:33:03;100580.94;;;1.79;100.00
61472;BME280;47337;54.068;12.114;2022-12-07T03:35:34;100580.19;;;1.81;100.00
61472;BME280;47337;54.068;12.114;2022-12-07T03:38:27;100581.78;;;1.78;100.00
61472;BME280;47337;54.068;12.114;2022-12-07T03:41:05;100577.66;;;1.83;100.00
61472;BME280;47337;54.068;12.114;2022-12-07T03:43:33;100575.28;;;1.88;100.00
61472;BME280;47337;54.068;12.114;2022-12-07T03:55:18;100546.59;;;1.83;100.00
61472;BME280;47337;54.068;12.114;2022-12-07T03:57:50;100546.53;;;1.81;100.00
61472;BME280;47337;54.068;12.114;2022-12-07T04:00:17;100542.38;;;1.85;100.00
61472;BME280;47337;54.068;12.114;2022-12-07T04:02:43;100546.81;;;1.88;100.00
61472;BME280;47337;54.068;12.114;2022-12-07T04:05:09;100559.59;;;1.84;100.00
61472;BME280;47337;54.068;12.114;2022-12-07T04:07:35;100553.75;;;1.89;100.00
61472;BME280;47337;54.068;12.114;2022-12-07T04:10:03;100546.06;;;1.90;100.00
61472;BME280;47337;54.068;12.114;2022-12-07T04:12:32;100542.69;;;1.93;100.00
61472;BME280;47337;54.068;12.114;2022-12-07T04:14:59;100536.38;;;1.86;100.00
61472;BME280;47337;54.068;12.114;2022-12-07T04:17:25;100538.03;;;1.84;100.00
61472;BME280;47337;54.068;12.114;2022-12-07T04:19:50;100536.38;;;1.86;100.00
61472;BME280;47337;54.068;12.114;2022-12-07T04:22:16;100536.38;;;1.86;100.00
61472;BME280;47337;54.068;12.114;2022-12-07T04:24:41;100535.13;;;1.97;100.00
61472;BME280;47337;54.068;12.114;2022-12-07T04:27:07;100534.16;;;1.95;100.00
61472;BME280;47337;54.068;12.114;2022-12-07T04:29:34;100526.16;;;1.89;100.00
61472;BME280;47337;54.068;12.114;2022-12-07T04:32:02;100533.22;;;1.93;100.00
61472;BME280;47337;54.068;12.114;2022-12-07T04:34:28;100543.47;;;1.90;100.00
61472;BME280;47337;54.068;12.114;2022-12-07T04:36:53;100533.13;;;1.90;100.00
61472;BME280;47337;54.068;12.114;2022-12-07T04:39:38;100538.41;;;1.93;100.00
61472;BME280;47337;54.068;12.114;2022-12-07T04:42:04;100523.22;;;2.02;100.00
61472;BME280;47337;54.068;12.114;2022-12-07T04:44:30;100536.00;;;1.98;100.00
61472;BME280;47337;54.068;12.114;2022-12-07T04:46:57;100525.59;;;1.96;100.00
61472;BME280;47337;54.068;12.114;2022-12-07T04:49:25;100530.00;;;1.99;100.00
61472;BME280;47337;54.068;12.114;2022-12-07T04:51:51;100525.88;;;2.04;100.00
61472;BME280;47337;54.068;12.114;2022-12-07T04:54:19;100530.97;;;2.01;100.00
61472;BME280;47337;54.068;12.114;2022-12-07T04:56:45;100535.06;;;1.96;100.00
61472;BME280;47337;54.068;12.114;2022-12-07T04:59:15;100534.00;;;2.11;100.00
61472;BME280;47337;54.068;12.114;2022-12-07T05:01:43;100534.41;;;2.22;100.00
61472;BME280;47337;54.068;12.114;2022-12-07T05:04:13;100534.03;;;2.13;100.00
61472;BME280;47337;54.068;12.114;2022-12-07T05:06:42;100537.63;;;2.16;100.00
61472;BME280;47337;54.068;12.114;2022-12-07T05:09:10;100534.91;;;2.13;100.00
61472;BME280;47337;54.068;12.114;2022-12-07T05:11:35;100535.63;;;2.09;100.00
61472;BME280;47337;54.068;12.114;2022-12-07T05:14:15;100537.03;;;2.01;100.00
61472;BME280;47337;54.068;12.114;2022-12-07T05:16:43;100538.66;;;1.99;100.00
61472;BME280;47337;54.068;12.114;2022-12-07T05:19:09;100538.16;;;2.08;100.00
61472;BME280;47337;54.068;12.114;2022-12-07T05:21:35;100537.25;;;2.07;100.00
61472;BME280;47337;54.068;12.114;2022-12-07T05:24:01;100543.03;;;2.00;100.00
61472;BME280;47337;54.068;12.114;2022-12-07T05:26:27;100533.72;;;2.05;100.00
61472;BME280;47337;54.068;12.114;2022-12-07T05:28:54;100533.84;;;2.08;100.00
61472;BME280;47337;54.068;12.114;2022-12-07T05:31:20;100539.47;;;1.98;100.00
61472;BME280;47337;54.068;12.114;2022-12-07T05:33:46;100542.81;;;1.96;100.00
61472;BME280;47337;54.068;12.114;2022-12-07T05:36:12;100528.41;;;2.02;100.00
61472;BME280;47337;54.068;12.114;2022-12-07T05:38:37;100531.06;;;1.83;100.00
61472;BME280;47337;54.068;12.114;2022-12-07T05:41:03;100527.97;;;1.92;100.00
61472;BME280;47337;54.068;12.114;2022-12-07T05:43:32;100524.50;;;1.91;100.00
61472;BME280;47337;54.068;12.114;2022-12-07T05:45:58;100533.34;;;1.96;100.00
61472;BME280;47337;54.068;12.114;2022-12-07T05:48:25;100528.03;;;1.93;100.00
61472;BME280;47337;54.068;12.114;2022-12-07T05:50:51;100521.06;;;1.91;100.00
61472;BME280;47337;54.068;12.114;2022-12-07T05:53:19;100521.09;;;1.92;100.00
61472;BME280;47337;54.068;12.114;2022-12-07T05:55:45;100525.00;;;2.03;100.00
61472;BME280;47337;54.068;12.114;2022-12-07T05:58:13;100530.47;;;1.89;100.00
61472;BME280;47337;54.068;12.114;2022-12-07T06:00:59;100533.72;;;1.84;100.00
61472;BME280;47337;54.068;12.114;2022-12-07T06:03:29;100528.50;;;1.83;100.00
61472;BME280;47337;54.068;12.114;2022-12-07T06:05:54;100531.06;;;1.83;100.00
61472;BME280;47337;54.068;12.114;2022-12-07T06:08:20;100529.31;;;1.82;100.00
61472;BME280;47337;54.068;12.114;2022-12-07T06:10:47;100544.97;;;1.85;100.00
61472;BME280;47337;54.068;12.114;2022-12-07T06:13:32;100543.25;;;1.86;100.00
61472;BME280;47337;54.068;12.114;2022-12-07T06:15:59;100544.97;;;1.85;100.00
61472;BME280;47337;54.068;12.114;2022-12-07T06:18:25;100539.78;;;1.85;100.00
61472;BME280;47337;54.068;12.114;2022-12-07T06:20:50;100553.56;;;1.84;100.00
61472;BME280;47337;54.068;12.114;2022-12-07T06:23:16;100550.00;;;1.82;100.00
61472;BME280;47337;54.068;12.114;2022-12-07T06:25:45;100544.97;;;1.85;100.00
61472;BME280;47337;54.068;12.114;2022-12-07T06:28:11;100545.66;;;1.81;100.00
61472;BME280;47337;54.068;12.114;2022-12-07T06:30:36;100547.75;;;1.69;100.00
61472;BME280;47337;54.068;12.114;2022-12-07T06:33:04;100546.22;;;1.74;100.00
61472;BME280;47337;54.068;12.114;2022-12-07T06:35:29;100546.88;;;1.68;100.00
61472;BME280;47337;54.068;12.114;2022-12-07T06:37:54;100549.50;;;1.70;100.00
61472;BME280;47337;54.068;12.114;2022-12-07T06:40:20;100545.72;;;1.62;100.00
61472;BME280;47337;54.068;12.114;2022-12-07T06:42:45;100548.22;;;1.60;100.00
61472;BME280;47337;54.068;12.114;2022-12-07T06:45:10;100547.34;;;1.60;100.00
61472;BME280;47337;54.068;12.114;2022-12-07T06:47:38;100548.94;;;1.56;100.00
61472;BME280;47337;54.068;12.114;2022-12-07T06:50:04;100550.06;;;1.63;100.00
61472;BME280;47337;54.068;12.114;2022-12-07T06:52:33;100548.72;;;1.52;100.00
61472;BME280;47337;54.068;12.114;2022-12-07T06:54:58;100553.22;;;1.56;100.00
61472;BME280;47337;54.068;12.114;2022-12-07T06:57:24;100558.56;;;1.60;100.00
61472;BME280;47337;54.068;12.114;2022-12-07T06:59:49;100552.59;;;1.61;100.00
61472;BME280;47337;54.068;12.114;2022-12-07T07:02:17;100558.22;;;1.72;100.00
61472;BME280;47337;54.068;12.114;2022-12-07T07:04:43;100549.38;;;1.67;100.00
61472;BME280;47337;54.068;12.114;2022-12-07T07:07:08;100552.16;;;1.71;100.00
61472;BME280;47337;54.068;12.114;2022-12-07T07:09:34;100555.81;;;1.76;100.00
61472;BME280;47337;54.068;12.114;2022-12-07T07:11:59;100549.84;;;1.77;100.00
61472;BME280;47337;54.068;12.114;2022-12-07T07:14:26;100565.53;;;1.82;100.00
61472;BME280;47337;54.068;12.114;2022-12-07T07:16:52;100569.97;;;1.84;100.00
61472;BME280;47337;54.068;12.114;2022-12-07T07:19:20;100575.19;;;1.86;100.00
61472;BME280;47337;54.068;12.114;2022-12-07T07:21:45;100574.00;;;1.99;100.00
61472;BME280;47337;54.068;12.114;2022-12-07T07:24:11;100577.09;;;1.90;100.00
61472;BME280;47337;54.068;12.114;2022-12-07T07:26:39;100572.41;;;2.02;100.00
61472;BME280;47337;54.068;12.114;2022-12-07T07:29:07;100567.50;;;2.08;100.00
61472;BME280;47337;54.068;12.114;2022-12-07T07:31:35;100573.50;;;2.07;100.00
61472;BME280;47337;54.068;12.114;2022-12-07T07:34:02;100566.31;;;2.00;100.00
61472;BME280;47337;54.068;12.114;2022-12-07T07:36:27;100572.25;;;1.98;100.00
61472;BME280;47337;54.068;12.114;2022-12-07T07:38:53;100571.34;;;1.97;100.00
61472;BME280;47337;54.068;12.114;2022-12-07T07:41:18;100575.28;;;2.08;100.00
61472;BME280;47337;54.068;12.114;2022-12-07T07:43:47;100574.44;;;2.09;100.00
61472;BME280;47337;54.068;12.114;2022-12-07T07:46:12;100571.88;;;2.09;100.00
61472;BME280;47337;54.068;12.114;2022-12-07T07:48:37;100575.63;;;2.17;100.00
61472;BME280;47337;54.068;12.114;2022-12-07T07:51:06;100571.16;;;2.13;100.00
61472;BME280;47337;54.068;12.114;2022-12-07T07:53:32;100579.19;;;2.19;100.00
61472;BME280;47337;54.068;12.114;2022-12-07T07:55:58;100577.53;;;2.22;100.00
61472;BME280;47337;54.068;12.114;2022-12-07T07:58:23;100585.31;;;2.22;100.00
61472;BME280;47337;54.068;12.114;2022-12-07T08:00:49;100578.72;;;2.30;100.00
61472;BME280;47337;54.068;12.114;2022-12-07T08:03:19;100581.91;;;2.45;100.00
61472;BME280;47337;54.068;12.114;2022-12-07T08:05:44;100576.84;;;2.48;100.00
61472;BME280;47337;54.068;12.114;2022-12-07T08:08:12;100576.47;;;2.60;100.00
61472;BME280;47337;54.068;12.114;2022-12-07T08:10:37;100570.63;;;2.65;100.00
61472;BME280;47337;54.068;12.114;2022-12-07T08:13:03;100573.53;;;2.73;100.00
61472;BME280;47337;54.068;12.114;2022-12-07T08:15:42;100569.69;;;2.63;100.00
61472;BME280;47337;54.068;12.114;2022-12-07T08:18:08;100561.59;;;2.55;100.00
61472;BME280;47337;54.068;12.114;2022-12-07T08:20:34;100559.00;;;2.55;100.00
61472;BME280;47337;54.068;12.114;2022-12-07T08:23:00;100555.91;;;2.64;100.00
61472;BME280;47337;54.068;12.114;2022-12-07T08:25:26;100550.34;;;2.77;100.00
61472;BME280;47337;54.068;12.114;2022-12-07T08:27:52;100536.16;;;2.90;100.00
61472;BME280;47337;54.068;12.114;2022-12-07T08:30:18;100533.63;;;2.91;100.00
61472;BME280;47337;54.068;12.114;2022-12-07T08:32:44;100526.53;;;2.87;100.00
61472;BME280;47337;54.068;12.114;2022-12-07T08:35:10;100528.03;;;2.81;100.00
61472;BME280;47337;54.068;12.114;2022-12-07T08:37:36;100534.72;;;2.74;100.00
61472;BME280;47337;54.068;12.114;2022-12-07T08:40:06;100532.28;;;2.79;100.00
61472;BME280;47337;54.068;12.114;2022-12-07T08:42:32;100536.88;;;2.86;100.00
61472;BME280;47337;54.068;12.114;2022-12-07T08:45:07;100535.25;;;2.89;100.00
61472;BME280;47337;54.068;12.114;2022-12-07T08:47:34;100530.75;;;2.84;100.00
61472;BME280;47337;54.068;12.114;2022-12-07T08:50:01;100524.50;;;2.79;100.00
61472;BME280;47337;54.068;12.114;2022-12-07T08:52:32;100521.84;;;2.77;100.00
61472;BME280;47337;54.068;12.114;2022-12-07T08:55:01;100527.97;;;2.79;100.00
61472;BME280;47337;54.068;12.114;2022-12-07T08:57:30;100503.88;;;2.82;100.00
61472;BME280;47337;54.068;12.114;2022-12-07T08:59:55;100513.59;;;2.87;100.00
61472;BME280;47337;54.068;12.114;2022-12-07T09:02:21;100503.94;;;2.83;100.00
61472;BME280;47337;54.068;12.114;2022-12-07T09:04:46;100501.41;;;2.85;100.00
61472;BME280;47337;54.068;12.114;2022-12-07T09:07:12;100508.72;;;2.95;100.00
61472;BME280;47337;54.068;12.114;2022-12-07T09:09:37;100509.91;;;3.05;100.00
61472;BME280;47337;54.068;12.114;2022-12-07T09:12:05;100512.38;;;3.25;100.00
61472;BME280;47337;54.068;12.114;2022-12-07T09:14:33;100509.06;;;3.29;100.00
61472;BME280;47337;54.068;12.114;2022-12-07T09:17:09;100502.47;;;3.39;100.00
61472;BME280;47337;54.068;12.114;2022-12-07T09:19:35;100510.81;;;3.30;100.00
61472;BME280;47337;54.068;12.114;2022-12-07T09:22:03;100502.16;;;3.30;100.00
61472;BME280;47337;54.068;12.114;2022-12-07T09:24:30;100506.94;;;3.43;100.00
61472;BME280;47337;54.068;12.114;2022-12-07T09:26:56;100502.22;;;3.57;100.00
61472;BME280;47337;54.068;12.114;2022-12-07T09:29:24;100497.81;;;3.54;100.00
61472;BME280;47337;54.068;12.114;2022-12-07T09:31:51;100491.03;;;3.58;100.00
61472;BME280;47337;54.068;12.114;2022-12-07T09:34:17;100493.75;;;3.62;100.00
61472;BME280;47337;54.068;12.114;2022-12-07T09:36:42;100490.50;;;3.68;100.00
61472;BME280;47337;54.068;12.114;2022-12-07T09:39:08;100481.94;;;3.71;100.00
61472;BME280;47337;54.068;12.114;2022-12-07T09:41:37;100474.34;;;3.77;100.00
61472;BME280;47337;54.068;12.114;2022-12-07T09:44:10;100473.63;;;3.81;100.00
61472;BME280;47337;54.068;12.114;2022-12-07T09:46:39;100463.59;;;3.93;100.00
61472;BME280;47337;54.068;12.114;2022-12-07T09:49:05;100461.56;;;4.10;100.00
61472;BME280;47337;54.068;12.114;2022-12-07T09:51:35;100456.78;;;4.23;100.00
61472;BME280;47337;54.068;12.114;2022-12-07T09:54:01;100448.13;;;4.24;100.00
61472;BME280;47337;54.068;12.114;2022-12-07T09:56:29;100440.63;;;4.05;100.00
61472;BME280;47337;54.068;12.114;2022-12-07T09:58:59;100434.16;;;4.19;100.00
61472;BME280;47337;54.068;12.114;2022-12-07T10:01:29;100430.25;;;4.05;100.00
61472;BME280;47337;54.068;12.114;2022-12-07T10:04:05;100431.81;;;4.00;100.00
61472;BME280;47337;54.068;12.114;2022-12-07T10:06:34;100421.06;;;3.88;100.00
61472;BME280;47337;54.068;12.114;2022-12-07T10:08:59;100416.84;;;3.91;100.00
61472;BME280;47337;54.068;12.114;2022-12-07T10:11:25;100410.63;;;3.86;100.00
61472;BME280;47337;54.068;12.114;2022-12-07T10:13:52;100420.28;;;3.90;100.00
61472;BME280;47337;54.068;12.114;2022-12-07T10:18:53;100397.50;;;4.10;100.00
61472;BME280;47337;54.068;12.114;2022-12-07T10:32:36;100354.81;;;4.93;100.00
61472;BME280;47337;54.068;12.114;2022-12-07T10:34:37;100350.38;;;5.24;100.00
61472;BME280;47337;54.068;12.114;2022-12-07T10:47:38;100294.28;;;4.34;100.00
61472;BME280;47337;54.068;12.114;2022-12-07T10:50:24;100283.41;;;4.16;100.00
61472;BME280;47337;54.068;12.114;2022-12-07T10:58:59;100276.03;;;3.72;100.00
61472;BME280;47337;54.068;12.114;2022-12-07T11:07:22;100258.69;;;3.41;100.00
61472;BME280;47337;54.068;12.114;2022-12-07T11:12:54;100227.44;;;3.36;100.00
61472;BME280;47337;54.068;12.114;2022-12-07T11:15:33;100224.28;;;3.46;100.00
61472;BME280;47337;54.068;12.114;2022-12-07T11:21:03;100188.44;;;3.63;100.00
61472;BME280;47337;54.068;12.114;2022-12-07T11:34:25;100230.66;;;3.29;100.00
61472;BME280;47337;54.068;12.114;2022-12-07T11:36:59;100251.00;;;3.15;100.00
61472;BME280;47337;54.068;12.114;2022-12-07T11:39:36;100236.94;;;3.09;100.00
61472;BME280;47337;54.068;12.114;2022-12-07T11:42:38;100233.09;;;2.96;100.00
61472;BME280;47337;54.068;12.114;2022-12-07T11:47:40;100215.63;;;2.90;100.00
61472;BME280;47337;54.068;12.114;2022-12-07T11:53:09;100196.66;;;2.91;100.00
61472;BME280;47337;54.068;12.114;2022-12-07T11:55:43;100193.97;;;2.88;100.00
61472;BME280;47337;54.068;12.114;2022-12-07T12:00:50;100210.16;;;2.81;100.00
61472;BME280;47337;54.068;12.114;2022-12-07T12:03:26;100211.91;;;2.82;100.00
61472;BME280;47337;54.068;12.114;2022-12-07T12:05:55;100215.34;;;2.81;100.00
61472;BME280;47337;54.068;12.114;2022-12-07T12:08:31;100219.09;;;2.91;100.00
61472;BME280;47337;54.068;12.114;2022-12-07T12:11:14;100217.50;;;2.94;100.00
61472;BME280;47337;54.068;12.114;2022-12-07T12:16:29;100212.69;;;3.07;100.00
61472;BME280;47337;54.068;12.114;2022-12-07T12:19:28;100210.00;;;3.04;100.00
61472;BME280;47337;54.068;12.114;2022-12-07T12:22:14;100209.50;;;3.15;100.00
61472;BME280;47337;54.068;12.114;2022-12-07T12:24:43;100202.34;;;3.07;100.00
61472;BME280;47337;54.068;12.114;2022-12-07T12:27:22;100196.38;;;3.11;100.00
61472;BME280;47337;54.068;12.114;2022-12-07T12:29:54;100194.69;;;3.11;100.00
61472;BME280;47337;54.068;12.114;2022-12-07T12:32:42;100191.97;;;3.07;100.00
61472;BME280;47337;54.068;12.114;2022-12-07T12:37:56;100167.88;;;3.11;100.00
61472;BME280;47337;54.068;12.114;2022-12-07T12:40:42;100166.16;;;3.11;100.00
61472;BME280;47337;54.068;12.114;2022-12-07T12:43:48;100152.41;;;3.14;100.00
61472;BME280;47337;54.068;12.114;2022-12-07T12:51:56;100141.94;;;3.11;100.00
61472;BME280;47337;54.068;12.114;2022-12-07T12:54:27;100132.44;;;3.11;100.00
61472;BME280;47337;54.068;12.114;2022-12-07T13:18:25;100121.03;;;3.05;100.00
61472;BME280;47337;54.068;12.114;2022-12-07T13:23:55;100121.88;;;3.04;100.00
61472;BME280;47337;54.068;12.114;2022-12-07T13:26:41;100115.91;;;3.08;100.00
61472;BME280;47337;54.068;12.114;2022-12-07T13:29:15;100114.00;;;3.01;100.00
61472;BME280;47337;54.068;12.114;2022-12-07T13:37:10;100123.53;;;3.02;100.00
61472;BME280;47337;54.068;12.114;2022-12-07T13:39:45;100114.19;;;3.07;100.00
61472;BME280;47337;54.068;12.114;2022-12-07T13:42:27;100091.75;;;3.09;100.00
61472;BME280;47337;54.068;12.114;2022-12-07T13:44:53;100075.41;;;3.11;100.00
61472;BME280;47337;54.068;12.114;2022-12-07T13:49:51;100060.75;;;3.12;100.00
61472;BME280;47337;54.068;12.114;2022-12-07T13:54:49;100035.56;;;3.08;100.00
61472;BME280;47337;54.068;12.114;2022-12-07T13:57:17;100029.53;;;3.09;100.00
61472;BME280;47337;54.068;12.114;2022-12-07T13:59:45;100026.88;;;3.06;100.00
61472;BME280;47337;54.068;12.114;2022-12-07T14:02:28;100026.94;;;3.07;100.00
61472;BME280;47337;54.068;12.114;2022-12-07T14:07:35;100009.78;;;3.12;100.00
61472;BME280;47337;54.068;12.114;2022-12-07T14:10:05;99992.50;;;3.13;100.00
61472;BME280;47337;54.068;12.114;2022-12-07T14:12:34;99976.13;;;3.14;100.00
61472;BME280;47337;54.068;12.114;2022-12-07T14:15:03;99985.06;;;3.25;100.00
61472;BME280;47337;54.068;12.114;2022-12-07T14:17:29;99963.97;;;3.13;100.00
61472;BME280;47337;54.068;12.114;2022-12-07T14:20:01;99982.91;;;3.10;100.00
61472;BME280;47337;54.068;12.114;2022-12-07T14:22:35;99982.25;;;3.17;100.00
61472;BME280;47337;54.068;12.114;2022-12-07T14:27:33;100014.06;;;3.12;100.00
61472;BME280;47337;54.068;12.114;2022-12-07T14:30:04;100018.13;;;3.02;100.00
61472;BME280;47337;54.068;12.114;2022-12-07T14:32:30;100045.72;;;3.00;100.00
61472;BME280;47337;54.068;12.114;2022-12-07T14:35:12;100069.75;;;2.94;100.00
61472;BME280;47337;54.068;12.114;2022-12-07T14:37:39;100115.75;;;2.73;100.00
61472;BME280;47337;54.068;12.114;2022-12-07T14:40:06;100137.59;;;2.54;100.00
61472;BME280;47337;54.068;12.114;2022-12-07T14:42:35;100158.91;;;2.46;100.00
61472;BME280;47337;54.068;12.114;2022-12-07T14:45:00;100180.31;;;2.40;100.00
61472;BME280;47337;54.068;12.114;2022-12-07T14:47:28;100195.34;;;2.50;100.00
61472;BME280;47337;54.068;12.114;2022-12-07T14:49:53;100197.09;;;2.51;100.00
61472;BME280;47337;54.068;12.114;2022-12-07T14:52:28;100197.44;;;2.62;100.00
61472;BME280;47337;54.068;12.114;2022-12-07T14:54:56;100201.81;;;2.63;100.00
61472;BME280;47337;54.068;12.114;2022-12-07T14:57:22;100195.19;;;2.73;100.00
61472;BME280;47337;54.068;12.114;2022-12-07T14:59:48;100171.22;;;2.80;100.00
61472;BME280;47337;54.068;12.114;2022-12-07T15:02:16;100166.94;;;2.80;100.00
61472;BME280;47337;54.068;12.114;2022-12-07T15:04:42;100160.28;;;2.88;100.00
61472;BME280;47337;54.068;12.114;2022-12-07T15:07:18;100148.84;;;2.82;100.00
61472;BME280;47337;54.068;12.114;2022-12-07T15:09:43;100141.13;;;2.83;100.00
61472;BME280;47337;54.068;12.114;2022-12-07T15:12:14;100135.06;;;2.83;100.00
61472;BME280;47337;54.068;12.114;2022-12-07T15:14:40;100129.00;;;2.82;100.00